Time;durP1;ratioP1;P1;durP2;ratioP2;P2;SDS_P1;SDS_P2;PMS_P1;PMS_P2;Temp;Humidity;BMP_temperature;BMP_pressure;BME280_temperature;BME280_humidity;BME280_pressure;Samples;Min_cycle;Max_cycle;Signal;HPM_P1;HPM_P2
2021/11/27 00:01:16;;;;;;;3.67;2.50;;;3.70;99.90;;;;;;5036635;28;20068;-82
2021/11/27 00:03:42;;;;;;;4.47;2.90;;;3.60;99.90;;;;;;5053203;28;20032;-83
2021/11/27 00:06:08;;;;;;;5.22;3.13;;;4.60;99.90;;;;;;5038028;28;20021;-81
2021/11/27 00:08:35;;;;;;;4.55;2.85;;;3.50;99.90;;;;;;5038439;28;20037;-82
2021/11/27 00:11:00;;;;;;;4.82;2.83;;;4.20;99.90;;;;;;5020309;28;20021;-81
2021/11/27 00:13:26;;;;;;;4.97;2.85;;;3.50;99.90;;;;;;5022143;28;20020;-84
2021/11/27 00:15:53;;;;;;;5.47;3.15;;;3.60;99.90;;;;;;5035885;28;20028;-81
2021/11/27 00:18:21;;;;;;;5.65;3.47;;;3.60;99.90;;;;;;5036376;28;20102;-82
2021/11/27 00:20:56;;;;;;;5.22;2.85;;;3.70;99.90;;;;;;5032039;28;20036;-81
2021/11/27 00:23:23;;;;;;;4.43;2.83;;;3.70;99.90;;;;;;5038812;28;20520;-81
2021/11/27 00:25:50;;;;;;;7.03;3.80;;;5.30;99.90;;;;;;5036966;28;20027;-82
2021/11/27 00:28:16;;;;;;;5.90;3.00;;;3.70;99.90;;;;;;5029614;28;20028;-80
2021/11/27 00:30:43;;;;;;;5.00;3.08;;;3.70;99.90;;;;;;5035123;28;20482;-81
2021/11/27 00:33:10;;;;;;;6.93;4.07;;;;;;;;;;5050955;28;20029;-79
2021/11/27 00:35:35;;;;;;;4.28;2.80;;;4.10;99.90;;;;;;5026470;28;20043;-78
2021/11/27 00:38:03;;;;;;;6.32;3.20;;;3.80;99.90;;;;;;5048417;28;20029;-85
2021/11/27 00:40:29;;;;;;;5.00;2.92;;;3.70;99.90;;;;;;5035903;28;20060;-82
2021/11/27 00:42:56;;;;;;;5.47;3.30;;;;;;;;;;5032337;28;20033;-81
2021/11/27 00:45:25;;;;;;;5.43;3.22;;;3.70;99.90;;;;;;5038846;28;20120;-84
2021/11/27 00:47:53;;;;;;;4.68;3.05;;;3.70;99.90;;;;;;5041406;28;20437;-81
2021/11/27 00:50:22;;;;;;;5.13;3.00;;;3.70;99.90;;;;;;5041688;28;20147;-80
2021/11/27 00:52:49;;;;;;;4.82;3.30;;;3.70;99.90;;;;;;5040079;28;20056;-80
2021/11/27 00:55:15;;;;;;;4.30;3.20;;;5.20;99.90;;;;;;5034752;28;20029;-80
2021/11/27 00:57:42;;;;;;;5.07;2.60;;;5.20;99.90;;;;;;5031388;28;20048;-81
2021/11/27 01:00:12;;;;;;;5.30;3.10;;;4.90;99.90;;;;;;5035087;28;20145;-80
2021/11/27 01:02:38;;;;;;;4.32;2.80;;;3.80;99.90;;;;;;5048602;28;20115;-82
2021/11/27 01:05:06;;;;;;;6.00;3.20;;;3.80;99.90;;;;;;5034660;28;20516;-83
2021/11/27 01:07:32;;;;;;;5.70;3.25;;;3.80;99.90;;;;;;5032003;28;20022;-81
2021/11/27 01:09:58;;;;;;;4.38;3.00;;;;;;;;;;5034507;28;20031;-80
2021/11/27 01:12:24;;;;;;;4.28;2.90;;;3.70;99.90;;;;;;5030623;28;20037;-81
2021/11/27 01:14:50;;;;;;;5.22;3.13;;;;;;;;;;5039430;28;20044;-79
2021/11/27 01:17:16;;;;;;;6.68;3.47;;;;;;;;;;5034283;28;20115;-80
2021/11/27 01:19:42;;;;;;;6.68;3.70;;;;;;;;;;5035923;28;20025;-80
2021/11/27 01:22:14;;;;;;;5.00;3.35;;;3.60;99.90;;;;;;5029330;28;20076;-81
2021/11/27 01:24:41;;;;;;;5.97;3.45;;;;;;;;;;5050109;28;20116;-80
2021/11/27 01:27:08;;;;;;;5.00;3.30;;;;;;;;;;5032646;28;20053;-81
2021/11/27 01:29:34;;;;;;;7.97;4.40;;;;;;;;;;5033656;28;20057;-80
2021/11/27 01:32:00;;;;;;;6.80;2.95;;;;;;;;;;5051576;28;20430;-80
2021/11/27 01:34:26;;;;;;;6.10;3.17;;;3.70;99.90;;;;;;5051148;28;20032;-81
2021/11/27 01:36:52;;;;;;;4.93;2.55;;;3.70;99.90;;;;;;5042644;28;20040;-82
2021/11/27 01:39:18;;;;;;;5.20;3.13;;;3.80;99.90;;;;;;5032544;28;20502;-83
2021/11/27 01:41:44;;;;;;;4.95;2.90;;;5.30;99.90;;;;;;5048044;28;20104;-80
2021/11/27 01:44:10;;;;;;;5.93;3.20;;;3.80;99.90;;;;;;5032440;28;20033;-80
2021/11/27 01:46:38;;;;;;;4.50;2.80;;;3.80;99.90;;;;;;5049162;28;20040;-79
2021/11/27 01:49:06;;;;;;;3.97;2.38;;;3.80;99.90;;;;;;5024128;28;20030;-81
2021/11/27 01:51:32;;;;;;;4.78;2.50;;;3.70;99.90;;;;;;5035329;28;20043;-79
2021/11/27 01:54:04;;;;;;;5.82;2.67;;;3.80;99.90;;;;;;5056032;28;20518;-81
2021/11/27 01:56:41;;;;;;;3.97;2.70;;;3.90;99.90;;;;;;5033955;28;20120;-80
2021/11/27 01:59:07;;;;;;;3.53;2.30;;;3.90;99.90;;;;;;5037133;28;20032;-80
2021/11/27 02:01:34;;;;;;;5.13;2.53;;;3.90;99.90;;;;;;5033818;28;20037;-82
2021/11/27 02:04:02;;;;;;;8.90;5.43;;;3.90;99.90;;;;;;5038225;28;20422;-83
2021/11/27 02:06:28;;;;;;;4.53;2.90;;;3.80;99.90;;;;;;5026762;28;20246;-78
2021/11/27 02:08:56;;;;;;;4.65;2.67;;;3.90;99.90;;;;;;5027233;28;20036;-81
2021/11/27 02:11:32;;;;;;;4.35;2.60;;;3.80;99.90;;;;;;5024543;28;20551;-79
2021/11/27 02:13:59;;;;;;;4.15;2.83;;;3.90;99.90;;;;;;5042278;28;20041;-79
2021/11/27 02:16:26;;;;;;;5.78;2.78;;;3.90;99.90;;;;;;5026904;28;20571;-78
2021/11/27 02:18:52;;;;;;;3.85;2.30;;;3.80;99.90;;;;;;5021743;28;20044;-77
2021/11/27 02:21:21;;;;;;;4.38;2.53;;;3.90;99.90;;;;;;5025388;28;20050;-81
2021/11/27 02:23:48;;;;;;;5.03;2.83;;;3.80;99.90;;;;;;5036184;28;20025;-80
2021/11/27 02:26:16;;;;;;;4.05;2.50;;;3.80;99.90;;;;;;5021447;28;20510;-82
2021/11/27 02:28:51;;;;;;;6.28;3.08;;;3.80;99.90;;;;;;5025582;28;20118;-81
2021/11/27 02:31:18;;;;;;;4.35;3.00;;;3.70;99.90;;;;;;5040330;28;20036;-78
2021/11/27 02:33:43;;;;;;;4.85;2.80;;;3.80;99.90;;;;;;5023676;28;20459;-81
2021/11/27 02:36:09;;;;;;;4.28;2.63;;;3.80;99.90;;;;;;5024232;28;20029;-79
2021/11/27 02:38:35;;;;;;;3.97;2.50;;;3.80;99.90;;;;;;5025304;28;20029;-80
2021/11/27 02:41:01;;;;;;;4.00;2.55;;;3.80;99.90;;;;;;5042503;28;20036;-81
2021/11/27 02:43:27;;;;;;;4.15;2.70;;;3.80;99.90;;;;;;5042397;28;20036;-78
2021/11/27 02:45:53;;;;;;;3.70;2.63;;;4.80;99.90;;;;;;5044509;28;20029;-81
2021/11/27 02:48:19;;;;;;;4.18;2.70;;;3.80;99.90;;;;;;5042384;28;20021;-82
2021/11/27 02:50:45;;;;;;;4.15;2.60;;;3.80;99.90;;;;;;5030299;28;20112;-76
2021/11/27 02:53:11;;;;;;;4.30;2.67;;;3.80;99.90;;;;;;5024993;28;21318;-82
2021/11/27 02:55:36;;;;;;;4.68;2.60;;;3.90;99.90;;;;;;5017003;28;20055;-80
2021/11/27 02:58:02;;;;;;;4.05;2.63;;;3.90;99.90;;;;;;5021581;28;20033;-79
2021/11/27 03:00:28;;;;;;;4.18;3.13;;;3.90;99.90;;;;;;5042971;28;20033;-79
2021/11/27 03:02:54;;;;;;;4.60;3.35;;;3.90;99.90;;;;;;5026716;28;20041;-80
2021/11/27 03:05:21;;;;;;;4.30;2.65;;;3.90;99.90;;;;;;5042485;28;20036;-82
2021/11/27 03:07:46;;;;;;;3.65;2.70;;;3.90;99.90;;;;;;5025762;28;20024;-81
2021/11/27 03:10:15;;;;;;;4.75;3.03;;;3.90;99.90;;;;;;5028509;28;20474;-81
2021/11/27 03:12:41;;;;;;;4.82;2.67;;;4.00;99.90;;;;;;5046274;28;20036;-77
2021/11/27 03:15:10;;;;;;;4.45;3.00;;;4.10;99.90;;;;;;5029338;28;20135;-80
2021/11/27 03:17:36;;;;;;;4.78;3.00;;;4.00;99.90;;;;;;5030686;28;20041;-79
2021/11/27 03:20:03;;;;;;;3.88;2.80;;;4.00;99.90;;;;;;5040579;28;20502;-80
2021/11/27 03:22:29;;;;;;;3.63;2.47;;;3.90;99.90;;;;;;5041761;28;20037;-81
2021/11/27 03:24:55;;;;;;;4.63;3.33;;;4.00;99.90;;;;;;5023088;28;20364;-82
2021/11/27 03:27:20;;;;;;;3.97;2.80;;;3.90;99.90;;;;;;5027703;28;20123;-81
2021/11/27 03:29:47;;;;;;;5.82;3.28;;;4.30;99.90;;;;;;5024299;28;20081;-82
2021/11/27 03:32:17;;;;;;;4.45;3.10;;;3.80;99.90;;;;;;5022159;28;20071;-80
2021/11/27 03:34:43;;;;;;;4.35;3.05;;;3.80;99.90;;;;;;5022454;28;20025;-81
2021/11/27 03:37:09;;;;;;;3.35;2.65;;;3.80;99.90;;;;;;5022162;28;20491;-80
2021/11/27 03:39:36;;;;;;;3.90;2.80;;;3.90;99.90;;;;;;5023570;28;20040;-80
2021/11/27 03:42:08;;;;;;;3.60;2.60;;;3.90;99.90;;;;;;5041314;28;20489;-81
2021/11/27 03:44:34;;;;;;;5.47;3.05;;;3.80;99.90;;;;;;5027110;28;20049;-79
2021/11/27 03:47:00;;;;;;;5.40;3.20;;;3.60;99.90;;;;;;5017395;28;20021;-80
2021/11/27 03:49:28;;;;;;;3.70;2.70;;;3.60;99.90;;;;;;5049604;28;20024;-79
2021/11/27 03:51:54;;;;;;;3.63;2.40;;;;;;;;;;5038206;28;20051;-78
2021/11/27 03:54:21;;;;;;;4.47;2.95;;;3.70;99.90;;;;;;5053229;28;20383;-79
2021/11/27 03:56:48;;;;;;;4.30;2.90;;;3.70;99.90;;;;;;5032854;28;20048;-80
2021/11/27 03:59:13;;;;;;;4.40;3.00;;;3.70;99.90;;;;;;5048172;28;20025;-82
2021/11/27 04:01:40;;;;;;;4.05;2.60;;;3.70;99.90;;;;;;5037177;28;20112;-82
2021/11/27 04:04:07;;;;;;;4.88;2.97;;;3.60;99.90;;;;;;5055113;28;20074;-82
2021/11/27 04:06:34;;;;;;;4.50;3.08;;;3.70;99.90;;;;;;5031457;28;20118;-82
2021/11/27 04:09:02;;;;;;;4.47;3.17;;;3.70;99.90;;;;;;5038075;28;20025;-78
2021/11/27 04:11:27;;;;;;;6.03;3.40;;;3.70;99.90;;;;;;5047143;28;20021;-77
2021/11/27 04:13:54;;;;;;;6.57;3.75;;;3.70;99.90;;;;;;5035521;28;20040;-80
2021/11/27 04:16:19;;;;;;;3.95;3.15;;;3.80;99.90;;;;;;5034190;28;20017;-79
2021/11/27 04:18:45;;;;;;;4.88;3.50;;;3.80;99.90;;;;;;5035337;28;20170;-78
2021/11/27 04:21:12;;;;;;;4.65;3.00;;;3.90;99.90;;;;;;5053021;28;20021;-79
2021/11/27 04:23:38;;;;;;;4.82;3.20;;;4.90;99.90;;;;;;5034025;28;20506;-80
2021/11/27 04:26:04;;;;;;;5.78;3.35;;;3.80;99.90;;;;;;5051244;28;20036;-81
2021/11/27 04:28:30;;;;;;;4.57;3.28;;;3.90;99.90;;;;;;5042364;28;20305;-80
2021/11/27 04:30:56;;;;;;;3.90;3.08;;;3.90;99.90;;;;;;5056078;28;20031;-78
2021/11/27 04:33:22;;;;;;;4.55;3.30;;;3.90;99.90;;;;;;5034584;28;20108;-79
2021/11/27 04:35:48;;;;;;;5.80;3.20;;;4.00;99.90;;;;;;5036150;28;20071;-79
2021/11/27 04:38:14;;;;;;;4.55;3.25;;;4.10;99.90;;;;;;5048646;28;20437;-81
2021/11/27 04:40:40;;;;;;;5.43;3.47;;;4.00;99.90;;;;;;5032906;28;20033;-81
2021/11/27 04:43:05;;;;;;;5.85;3.40;;;4.00;99.90;;;;;;5033345;28;20040;-83
2021/11/27 04:45:32;;;;;;;5.45;4.22;;;4.00;99.90;;;;;;5036040;28;20040;-83
2021/11/27 04:47:58;;;;;;;6.40;4.88;;;4.00;99.90;;;;;;5052386;28;20025;-78
2021/11/27 04:50:24;;;;;;;5.78;4.25;;;5.00;99.90;;;;;;5053760;28;20036;-79
2021/11/27 04:52:51;;;;;;;6.35;4.60;;;;;;;;;;5039333;28;20480;-79
2021/11/27 04:55:18;;;;;;;6.40;4.47;;;3.90;99.90;;;;;;5049564;28;20029;-81
2021/11/27 04:57:44;;;;;;;6.07;4.55;;;;;;;;;;5040260;28;20047;-78
2021/11/27 05:00:19;;;;;;;5.45;4.53;;;3.90;99.90;;;;;;5046670;28;20041;-81
2021/11/27 05:02:45;;;;;;;6.60;4.50;;;3.70;99.90;;;;;;5034104;28;20483;-82
2021/11/27 05:05:11;;;;;;;6.15;4.45;;;5.30;99.90;;;;;;5034404;28;20053;-79
2021/11/27 05:07:37;;;;;;;5.75;4.43;;;4.20;99.90;;;;;;5036646;28;20025;-80
2021/11/27 05:10:03;;;;;;;5.63;4.05;;;3.80;99.90;;;;;;5028716;28;20402;-80
2021/11/27 05:12:29;;;;;;;5.50;4.28;;;3.80;99.90;;;;;;5025576;28;20082;-77
2021/11/27 05:14:55;;;;;;;5.70;4.35;;;3.80;99.90;;;;;;5025949;28;20029;-79
2021/11/27 05:17:20;;;;;;;6.85;4.50;;;3.80;99.90;;;;;;5028913;28;20025;-80
2021/11/27 05:19:46;;;;;;;6.32;3.83;;;3.80;99.90;;;;;;5026971;28;20033;-82
2021/11/27 05:22:13;;;;;;;4.95;3.65;;;3.80;99.90;;;;;;5029729;28;20025;-80
2021/11/27 05:24:43;;;;;;;5.22;3.60;;;3.90;99.90;;;;;;5051751;28;20029;-80
2021/11/27 05:27:13;;;;;;;4.80;3.70;;;3.90;99.90;;;;;;5047029;28;20386;-81
2021/11/27 05:29:41;;;;;;;5.18;3.92;;;3.80;99.90;;;;;;5052080;28;22563;-82
2021/11/27 05:32:08;;;;;;;5.07;3.70;;;3.80;99.90;;;;;;5050313;28;20029;-82
2021/11/27 05:34:34;;;;;;;5.47;3.42;;;3.90;99.90;;;;;;5033566;28;20050;-80
2021/11/27 05:37:07;;;;;;;5.07;3.47;;;3.80;99.90;;;;;;5048145;28;20399;-80
2021/11/27 05:39:32;;;;;;;5.35;3.28;;;3.80;99.90;;;;;;5046901;28;20036;-80
2021/11/27 05:41:58;;;;;;;3.58;2.72;;;4.70;99.90;;;;;;5028728;28;20033;-81
2021/11/27 05:44:24;;;;;;;4.32;3.13;;;3.80;99.90;;;;;;5030558;28;20075;-81
2021/11/27 05:46:50;;;;;;;4.22;3.08;;;3.80;99.90;;;;;;5024498;28;20017;-81
2021/11/27 05:49:16;;;;;;;4.35;2.78;;;3.70;99.90;;;;;;5032361;28;20036;-80
2021/11/27 05:51:42;;;;;;;3.92;2.75;;;3.60;99.90;;;;;;5024906;28;20689;-81
2021/11/27 05:54:07;;;;;;;3.97;2.75;;;3.60;99.90;;;;;;5027102;28;20025;-82
2021/11/27 05:56:33;;;;;;;3.97;2.30;;;3.70;99.90;;;;;;5032261;28;20541;-79
2021/11/27 05:58:59;;;;;;;3.40;2.10;;;5.30;99.90;;;;;;5044463;28;20033;-80
2021/11/27 06:01:25;;;;;;;4.55;2.50;;;3.70;99.90;;;;;;5023542;28;20037;-78
2021/11/27 06:03:51;;;;;;;3.97;2.42;;;3.60;99.90;;;;;;5028592;28;20039;-79
2021/11/27 06:06:17;;;;;;;3.30;2.30;;;3.70;99.90;;;;;;5027481;28;20029;-79
2021/11/27 06:08:43;;;;;;;3.45;2.10;;;3.70;99.90;;;;;;5029565;28;20406;-81
2021/11/27 06:11:08;;;;;;;3.83;2.17;;;3.60;99.90;;;;;;5031316;28;20497;-83
2021/11/27 06:13:34;;;;;;;5.03;2.30;;;4.70;99.90;;;;;;5048700;28;20036;-82
2021/11/27 06:16:06;;;;;;;3.22;2.20;;;3.70;99.90;;;;;;5028362;28;20025;-80
2021/11/27 06:18:33;;;;;;;3.47;2.10;;;3.70;99.90;;;;;;5031044;28;20064;-81
2021/11/27 06:21:01;;;;;;;4.22;2.30;;;3.70;99.90;;;;;;5039778;28;20116;-82
2021/11/27 06:23:26;;;;;;;3.10;2.17;;;3.70;99.90;;;;;;5034379;28;20025;-81
2021/11/27 06:25:54;;;;;;;4.85;2.65;;;3.70;99.90;;;;;;5009894;28;20518;-81
2021/11/27 06:28:21;;;;;;;5.13;2.47;;;;;;;;;;5024249;28;20056;-80
2021/11/27 06:30:46;;;;;;;4.45;2.65;;;3.80;99.90;;;;;;5033266;28;20479;-81
2021/11/27 06:33:12;;;;;;;3.33;2.30;;;4.90;99.90;;;;;;5013339;28;20063;-82
2021/11/27 06:35:38;;;;;;;3.97;2.60;;;4.60;99.90;;;;;;5025833;28;20041;-81
2021/11/27 06:38:04;;;;;;;4.22;2.60;;;3.70;99.90;;;;;;5006532;28;20048;-81
2021/11/27 06:40:29;;;;;;;3.83;2.72;;;3.70;99.90;;;;;;5017911;28;20133;-82
2021/11/27 06:42:56;;;;;;;4.05;2.70;;;5.10;99.90;;;;;;5012887;28;20099;-78
2021/11/27 06:45:23;;;;;;;5.05;2.53;;;3.90;99.90;;;;;;5008589;28;21644;-82
2021/11/27 06:47:49;;;;;;;4.85;2.78;;;;;;;;;;5006907;28;20060;-81
2021/11/27 06:50:17;;;;;;;5.10;2.58;;;;;;;;;;5027923;28;20030;-80
2021/11/27 06:52:43;;;;;;;3.65;2.53;;;3.80;99.90;;;;;;5030390;28;20041;-80
2021/11/27 06:55:09;;;;;;;4.30;2.83;;;3.80;99.90;;;;;;5029684;28;20025;-83
2021/11/27 06:57:34;;;;;;;4.80;3.00;;;4.30;99.90;;;;;;5007051;28;20026;-81
2021/11/27 07:00:00;;;;;;;6.25;3.08;;;4.30;99.90;;;;;;5011025;28;20034;-82
2021/11/27 07:02:26;;;;;;;4.85;2.70;;;5.50;99.90;;;;;;5034305;28;20061;-83
2021/11/27 07:04:51;;;;;;;4.07;2.90;;;3.80;99.90;;;;;;5033896;28;20045;-82
2021/11/27 07:07:17;;;;;;;4.53;2.65;;;3.80;99.90;;;;;;5007114;28;21576;-84
2021/11/27 07:09:43;;;;;;;3.63;2.60;;;;;;;;;;5009837;28;20030;-79
2021/11/27 07:12:09;;;;;;;4.57;3.10;;;;;;;;;;5010993;28;20518;-81
2021/11/27 07:14:35;;;;;;;5.88;3.10;;;;;;;;;;5009475;28;20502;-83
2021/11/27 07:17:01;;;;;;;5.35;3.10;;;4.00;99.90;;;;;;5007242;28;20041;-81
2021/11/27 07:19:26;;;;;;;4.82;2.80;;;5.10;99.90;;;;;;5014968;28;20033;-84
2021/11/27 07:21:52;;;;;;;5.45;3.03;;;6.30;99.90;;;;;;5011974;28;20120;-78
2021/11/27 07:24:19;;;;;;;4.93;3.17;;;5.00;99.90;;;;;;5011625;28;20030;-82
2021/11/27 07:26:44;;;;;;;6.13;3.50;;;4.10;99.90;;;;;;5005765;28;20040;-85
2021/11/27 07:29:10;;;;;;;6.75;3.63;;;5.00;99.90;;;;;;5032118;28;20029;-81
2021/11/27 07:31:36;;;;;;;6.07;3.65;;;3.90;99.90;;;;;;5032173;28;20029;-82
2021/11/27 07:34:01;;;;;;;5.90;3.58;;;4.00;99.90;;;;;;5017572;28;20029;-79
2021/11/27 07:36:27;;;;;;;5.75;3.70;;;4.40;99.90;;;;;;5015476;28;20566;-80
2021/11/27 07:38:53;;;;;;;7.68;4.50;;;4.60;99.90;;;;;;5012502;28;20037;-80
2021/11/27 07:41:18;;;;;;;7.38;4.10;;;4.60;99.90;;;;;;5020999;28;20043;-79
2021/11/27 07:43:44;;;;;;;5.47;3.67;;;4.00;99.90;;;;;;5014350;28;20033;-80
2021/11/27 07:46:12;;;;;;;5.50;3.92;;;4.00;99.90;;;;;;5012723;28;20032;-83
2021/11/27 07:48:38;;;;;;;5.70;3.58;;;;;;;;;;5008377;28;20021;-80
2021/11/27 07:51:04;;;;;;;6.60;3.90;;;4.00;99.90;;;;;;5017258;28;20373;-76
2021/11/27 07:53:30;;;;;;;7.22;3.75;;;4.20;99.90;;;;;;5026506;28;20032;-80
2021/11/27 07:55:56;;;;;;;6.13;3.92;;;4.10;99.90;;;;;;5024653;28;20121;-78
2021/11/27 07:58:21;;;;;;;7.35;4.38;;;4.10;99.90;;;;;;5010291;28;20128;-80
2021/11/27 08:00:47;;;;;;;8.02;4.47;;;6.60;99.90;;;;;;5010326;28;20418;-82
2021/11/27 08:03:13;;;;;;;7.72;4.22;;;;;;;;;;5002884;28;20034;-81
2021/11/27 08:05:40;;;;;;;6.20;3.97;;;;;;;;;;5030216;28;20029;-78
2021/11/27 08:08:05;;;;;;;8.50;3.90;;;4.30;99.90;;;;;;5013239;28;20034;-81
2021/11/27 08:10:32;;;;;;;5.82;3.72;;;4.30;99.90;;;;;;5011260;28;20041;-82
2021/11/27 08:12:58;;;;;;;7.22;4.22;;;;;;;;;;5006246;28;20557;-84
2021/11/27 08:15:24;;;;;;;6.00;3.65;;;4.30;99.90;;;;;;5010305;28;20041;-82
2021/11/27 08:17:49;;;;;;;6.22;4.00;;;4.40;99.90;;;;;;5012450;28;20028;-78
2021/11/27 08:20:15;;;;;;;6.50;3.95;;;4.50;99.90;;;;;;5010643;28;20080;-80
2021/11/27 08:22:41;;;;;;;6.38;4.32;;;5.40;99.90;;;;;;5009393;28;20091;-83
2021/11/27 08:25:07;;;;;;;5.35;3.58;;;5.60;99.90;;;;;;5011191;28;20095;-78
2021/11/27 08:27:34;;;;;;;6.75;3.63;;;;;;;;;;5014095;28;20040;-86
2021/11/27 08:30:03;;;;;;;6.85;3.88;;;4.40;99.90;;;;;;5011203;28;20033;-80
2021/11/27 08:32:30;;;;;;;7.85;4.00;;;;;;;;;;5020777;28;20036;-87
2021/11/27 08:34:56;;;;;;;6.07;4.25;;;4.50;99.90;;;;;;5015389;28;20442;-80
2021/11/27 08:37:22;;;;;;;7.50;4.57;;;;;;;;;;5013961;28;20029;-80
2021/11/27 08:39:48;;;;;;;5.85;3.95;;;4.30;99.90;;;;;;5008799;28;20086;-80
2021/11/27 08:42:15;;;;;;;7.20;4.40;;;7.20;99.90;;;;;;5010772;28;20472;-84
2021/11/27 08:44:41;;;;;;;7.90;4.20;;;;;;;;;;5005823;28;20025;-82
2021/11/27 08:47:08;;;;;;;7.53;4.93;;;;;;;;;;5026384;28;20037;-81
2021/11/27 08:49:34;;;;;;;7.03;4.50;;;;;;;;;;5001598;28;20033;-83
2021/11/27 08:52:00;;;;;;;9.85;4.45;;;;;;;;;;5005355;28;20029;-82
2021/11/27 08:54:26;;;;;;;8.75;4.80;;;;;;;;;;5027820;28;20100;-81
2021/11/27 08:56:52;;;;;;;34.58;19.08;;;;;;;;;;5014655;28;20041;-82
2021/11/27 08:59:18;;;;;;;8.82;5.28;;;4.20;99.90;;;;;;5001714;28;20502;-81
2021/11/27 09:01:43;;;;;;;10.75;5.75;;;4.10;99.90;;;;;;5005296;28;20036;-81
2021/11/27 09:04:09;;;;;;;8.73;5.28;;;6.60;99.90;;;;;;5003234;28;20060;-81
2021/11/27 09:06:35;;;;;;;11.05;6.13;;;;;;;;;;5017376;28;20117;-79
2021/11/27 09:09:02;;;;;;;12.45;6.10;;;4.20;99.90;;;;;;5005709;28;20044;-77
2021/11/27 09:11:29;;;;;;;11.48;5.95;;;;;;;;;;5027076;28;20307;-78
2021/11/27 09:13:55;;;;;;;10.73;5.07;;;5.20;99.90;;;;;;5005850;28;20026;-80
2021/11/27 09:16:21;;;;;;;8.32;5.18;;;4.30;99.90;;;;;;5001635;28;20040;-78
2021/11/27 09:18:46;;;;;;;8.38;5.03;;;4.20;99.90;;;;;;5006405;28;20664;-79
2021/11/27 09:21:12;;;;;;;8.93;4.90;;;4.70;99.90;;;;;;5004840;28;20036;-77
2021/11/27 09:23:38;;;;;;;8.25;5.13;;;4.30;99.90;;;;;;5002954;28;20026;-75
2021/11/27 09:26:04;;;;;;;8.15;4.40;;;4.30;99.90;;;;;;5006917;28;20079;-79
2021/11/27 09:28:30;;;;;;;10.43;5.03;;;5.10;99.90;;;;;;5005188;28;20380;-77
2021/11/27 09:30:55;;;;;;;7.97;4.30;;;6.90;99.90;;;;;;5005439;28;20033;-79
2021/11/27 09:33:21;;;;;;;6.15;3.97;;;4.50;99.90;;;;;;5005278;28;20032;-79
2021/11/27 09:35:56;;;;;;;6.95;4.10;;;5.70;99.90;;;;;;5022366;28;20970;-77
2021/11/27 09:38:22;;;;;;;7.32;4.45;;;5.00;99.90;;;;;;5016047;28;20127;-77
2021/11/27 09:40:52;;;;;;;10.45;4.53;;;4.60;99.90;;;;;;5020536;28;20222;-76
2021/11/27 09:43:19;;;;;;;8.50;4.50;;;4.50;99.90;;;;;;5014473;28;20068;-76
2021/11/27 09:45:47;;;;;;;7.18;4.53;;;4.40;99.90;;;;;;4991758;28;20408;-78
2021/11/27 09:48:13;;;;;;;9.82;4.40;;;4.40;99.90;;;;;;5006563;28;20029;-78
2021/11/27 09:50:40;;;;;;;9.35;4.88;;;4.40;99.90;;;;;;4999011;28;20079;-76
2021/11/27 09:53:06;;;;;;;21.00;5.13;;;4.50;99.90;;;;;;5014841;28;20034;-77
2021/11/27 09:55:32;;;;;;;8.35;4.57;;;4.50;99.90;;;;;;5007031;28;20065;-75
2021/11/27 09:57:58;;;;;;;9.32;4.80;;;4.60;99.90;;;;;;5006587;28;20069;-77
2021/11/27 10:00:24;;;;;;;8.57;4.85;;;4.70;99.90;;;;;;5005826;28;20037;-78
2021/11/27 10:02:55;;;;;;;9.27;5.03;;;4.70;99.90;;;;;;5021776;28;20063;-77
2021/11/27 10:05:23;;;;;;;8.18;4.70;;;4.70;99.90;;;;;;5024584;28;20607;-78
2021/11/27 10:07:50;;;;;;;8.85;4.57;;;4.80;99.90;;;;;;5008246;28;20167;-77
2021/11/27 10:10:18;;;;;;;8.38;4.63;;;5.70;99.90;;;;;;5005633;28;20060;-80
2021/11/27 10:12:44;;;;;;;6.97;4.57;;;6.30;99.90;;;;;;5010203;28;20022;-82
2021/11/27 10:15:11;;;;;;;5.93;4.20;;;5.00;99.90;;;;;;5026924;28;20448;-77
2021/11/27 10:17:37;;;;;;;8.02;4.95;;;5.00;99.90;;;;;;5007531;28;20470;-77
2021/11/27 10:20:05;;;;;;;7.50;4.28;;;5.00;99.90;;;;;;5007076;28;20033;-81
2021/11/27 10:22:37;;;;;;;7.57;4.72;;;5.00;99.90;;;;;;5009371;28;20061;-80
2021/11/27 10:25:20;;;;;;;7.97;5.00;;;4.90;99.90;;;;;;5009876;28;20030;-80
2021/11/27 10:27:46;;;;;;;7.55;4.40;;;4.90;99.90;;;;;;5009893;28;20036;-82
2021/11/27 10:30:12;;;;;;;9.15;4.40;;;4.90;99.90;;;;;;5001378;28;21602;-82
2021/11/27 10:32:46;;;;;;;8.45;4.55;;;4.90;99.90;;;;;;5004276;28;20034;-83
2021/11/27 10:35:15;;;;;;;6.18;4.05;;;4.90;99.90;;;;;;5027138;28;20041;-81
2021/11/27 10:37:47;;;;;;;9.93;4.45;;;5.00;99.90;;;;;;5016397;28;20364;-82
2021/11/27 10:40:15;;;;;;;7.18;4.13;;;5.00;99.90;;;;;;5000285;28;20029;-80
2021/11/27 10:42:45;;;;;;;6.47;4.03;;;5.30;99.90;;;;;;5025937;28;20033;-80
2021/11/27 10:45:16;;;;;;;8.25;4.50;;;5.10;99.90;;;;;;5024640;28;20546;-83
2021/11/27 10:47:43;;;;;;;7.43;4.55;;;5.10;99.90;;;;;;5009664;28;20095;-82
2021/11/27 10:50:11;;;;;;;7.88;4.35;;;5.00;99.90;;;;;;5010398;28;20119;-82
2021/11/27 10:52:38;;;;;;;6.07;3.92;;;5.00;99.90;;;;;;5003354;28;20022;-83
2021/11/27 10:55:25;;;;;;;7.57;4.03;;;5.30;99.90;;;;;;4998426;28;20048;-81
2021/11/27 10:57:55;;;;;;;8.32;4.07;;;5.50;99.90;;;;;;5002969;28;20470;-80
2021/11/27 11:00:32;;;;;;;7.55;3.50;;;5.00;99.90;;;;;;5006847;28;20101;-81
2021/11/27 11:02:59;;;;;;;4.70;3.40;;;5.00;99.90;;;;;;5024021;28;20033;-81
2021/11/27 11:05:42;;;;;;;5.13;3.22;;;5.00;99.90;;;;;;5006540;28;20030;-79
2021/11/27 11:08:08;;;;;;;9.10;3.63;;;5.60;99.90;;;;;;5001997;28;20493;-82
2021/11/27 11:10:38;;;;;;;8.75;4.30;;;5.10;99.90;;;;;;5015239;28;20108;-82
2021/11/27 11:13:10;;;;;;;7.65;4.60;;;5.00;99.90;;;;;;5012988;28;20030;-81
2021/11/27 11:15:37;;;;;;;6.75;3.78;;;;;;;;;;5029989;28;20033;-82
2021/11/27 11:18:17;;;;;;;6.07;3.20;;;5.00;99.90;;;;;;5011339;28;20029;-81
2021/11/27 11:21:06;;;;;;;5.85;3.10;;;5.10;99.90;;;;;;5010835;28;20029;-81
2021/11/27 11:23:35;;;;;;;7.18;3.95;;;5.10;99.90;;;;;;5014647;28;20372;-79
2021/11/27 11:26:03;;;;;;;16.60;7.32;;;5.10;99.90;;;;;;5025974;28;20029;-81
2021/11/27 11:28:39;;;;;;;6.97;4.15;;;5.10;99.90;;;;;;5015781;28;20024;-81
2021/11/27 11:31:19;;;;;;;9.68;3.80;;;5.10;99.90;;;;;;5006883;28;20064;-82
2021/11/27 11:33:48;;;;;;;6.05;3.63;;;5.20;99.90;;;;;;5013185;28;20022;-81
2021/11/27 11:36:16;;;;;;;6.82;4.00;;;5.20;99.90;;;;;;5020688;28;20079;-80
2021/11/27 11:38:47;;;;;;;5.65;3.42;;;5.60;99.90;;;;;;5008756;28;20079;-79
2021/11/27 11:41:15;;;;;;;5.60;3.20;;;5.30;99.90;;;;;;5011428;28;20045;-78
2021/11/27 11:43:41;;;;;;;7.25;4.10;;;5.50;99.90;;;;;;5011302;28;20033;-81
2021/11/27 11:46:07;;;;;;;11.70;6.38;;;5.50;99.90;;;;;;5004792;28;21060;-81
2021/11/27 11:48:33;;;;;;;8.25;3.40;;;5.60;99.90;;;;;;5005269;28;20199;-84
2021/11/27 11:51:13;;;;;;;7.28;3.22;;;5.70;99.90;;;;;;5013828;28;20033;-83
2021/11/27 11:53:49;;;;;;;7.10;3.83;;;5.80;99.90;;;;;;5028170;28;20052;-81
2021/11/27 11:56:18;;;;;;;5.55;3.75;;;5.80;99.90;;;;;;5009579;28;20029;-82
2021/11/27 11:58:46;;;;;;;4.72;2.50;;;6.00;99.90;;;;;;5011529;28;20030;-81
2021/11/27 12:01:19;;;;;;;6.55;2.78;;;6.10;99.90;;;;;;5010893;28;20017;-82
2021/11/27 12:03:47;;;;;;;6.32;3.95;;;6.10;99.90;;;;;;5023464;28;20112;-86
2021/11/27 12:06:20;;;;;;;5.43;2.70;;;6.30;99.90;;;;;;5015015;28;20041;-80
2021/11/27 12:08:49;;;;;;;8.77;2.53;;;6.20;99.90;;;;;;5008532;28;20028;-81
2021/11/27 12:11:52;;;;;;;5.53;2.60;;;6.20;99.90;;;;;;5007915;28;20034;-84
2021/11/27 12:14:26;;;;;;;6.43;2.60;;;6.00;99.90;;;;;;4936525;29;20043;-84
2021/11/27 12:17:03;;;;;;;7.07;2.33;;;6.10;99.90;;;;;;4992926;28;21575;-83
2021/11/27 12:20:00;;;;;;;10.52;3.72;;;7.30;99.90;;;;;;5027784;28;20475;-81
2021/11/27 12:22:27;;;;;;;8.43;3.55;;;;;;;;;;5004418;28;20060;-81
2021/11/27 12:25:12;;;;;;;5.38;2.13;;;6.20;99.90;;;;;;5012675;28;20037;-77
2021/11/27 12:27:56;;;;;;;5.38;2.25;;;6.30;99.90;;;;;;5009512;28;20022;-81
2021/11/27 12:30:22;;;;;;;6.47;2.70;;;6.30;99.90;;;;;;5025523;28;20030;-81
2021/11/27 12:32:48;;;;;;;9.13;2.80;;;;;;;;;;5007123;28;20033;-81
2021/11/27 12:35:26;;;;;;;9.18;3.50;;;5.90;99.90;;;;;;5008773;28;20041;-79
2021/11/27 12:37:52;;;;;;;8.25;3.80;;;5.90;99.90;;;;;;5005919;28;20399;-80
2021/11/27 12:40:41;;;;;;;11.23;4.63;;;5.80;99.90;;;;;;5016266;28;20483;-79
2021/11/27 12:43:13;;;;;;;7.68;3.33;;;5.80;99.90;;;;;;5018161;28;20087;-82
2021/11/27 12:45:44;;;;;;;7.38;3.10;;;5.70;99.90;;;;;;5021804;28;20182;-82
2021/11/27 12:48:28;;;;;;;8.75;3.17;;;5.90;99.90;;;;;;5009745;28;20578;-79
2021/11/27 12:51:15;;;;;;;9.00;3.47;;;5.80;99.90;;;;;;5028345;28;20521;-79
2021/11/27 12:54:01;;;;;;;7.45;3.78;;;5.80;99.90;;;;;;5024542;28;20056;-78
2021/11/27 12:56:47;;;;;;;10.13;3.38;;;5.70;99.90;;;;;;5001822;28;20030;-84
2021/11/27 12:59:18;;;;;;;11.07;3.60;;;5.70;99.90;;;;;;4968261;28;20045;-82
2021/11/27 13:01:44;;;;;;;;;;;5.60;99.90;;;;;;5013461;28;20172;-83
2021/11/27 13:04:10;;;;;;;7.78;3.30;;;5.90;99.90;;;;;;5012485;28;19975;-80
2021/11/27 13:06:39;;;;;;;6.45;2.78;;;6.10;99.90;;;;;;5003992;28;20446;-80
2021/11/27 13:09:18;;;;;;;6.70;1.48;;;5.90;99.90;;;;;;5013512;28;20080;-83
2021/11/27 13:11:49;;;;;;;3.67;1.20;;;5.30;99.90;;;;;;5010674;28;20479;-80